createdAt,value
2022-07-28T04:06:38.989Z,25.24
2022-07-28T04:12:48.126Z,25.36
2022-07-28T04:18:51.432Z,25.32
2022-07-28T04:24:54.904Z,25.49
2022-07-28T04:30:57.062Z,25.48
2022-07-28T04:36:59.739Z,25.58
2022-07-28T04:43:02.075Z,25.62
2022-07-28T04:49:04.684Z,25.96
2022-07-28T04:55:07.863Z,26.10
2022-07-28T05:01:09.917Z,25.95
2022-07-28T05:07:12.859Z,25.95
2022-07-28T05:13:15.432Z,26.18
2022-07-28T05:19:17.912Z,26.57
2022-07-28T05:25:23.716Z,26.55
2022-07-28T05:31:26.922Z,26.63
2022-07-28T05:37:29.340Z,27.14
2022-07-28T05:43:31.372Z,27.26
2022-07-28T05:49:35.441Z,27.56
2022-07-28T05:55:57.804Z,27.70
2022-07-28T06:02:01.782Z,27.55
2022-07-28T06:08:05.307Z,27.68
2022-07-28T06:14:08.738Z,27.49
2022-07-28T06:20:13.138Z,27.88
2022-07-28T06:26:17.015Z,27.88
2022-07-28T06:32:19.198Z,28.22
2022-07-28T06:38:22.044Z,28.26
2022-07-28T06:44:37.490Z,28.19
2022-07-28T06:50:46.508Z,28.34
2022-07-28T06:56:52.213Z,28.47
2022-07-28T07:02:55.269Z,28.23
2022-07-28T07:08:57.616Z,28.37
2022-07-28T07:14:59.965Z,28.40
2022-07-28T07:21:02.491Z,28.69
2022-07-28T07:27:04.921Z,28.78
2022-07-28T07:33:07.082Z,28.89
2022-07-28T07:39:12.436Z,28.99
2022-07-28T07:45:15.188Z,29.51
2022-07-28T07:51:17.188Z,29.91
2022-07-28T07:57:19.299Z,29.84
2022-07-28T08:03:22.554Z,30.50
2022-07-28T08:09:25.201Z,29.98
2022-07-28T08:15:27.654Z,29.78
2022-07-28T08:21:31.036Z,29.60
2022-07-28T08:27:33.831Z,29.59
2022-07-28T08:33:35.890Z,29.31
2022-07-28T08:40:00.151Z,29.72
2022-07-28T08:46:06.527Z,30.15
2022-07-28T08:52:12.406Z,30.08
2022-07-28T08:58:17.526Z,30.31
2022-07-28T09:04:22.804Z,29.96
2022-07-28T09:10:25.266Z,29.85
2022-07-28T09:16:29.241Z,30.01
2022-07-28T09:22:35.514Z,30.00
2022-07-28T09:28:51.316Z,29.94
2022-07-28T09:34:53.546Z,29.71
2022-07-28T09:41:02.461Z,29.96
2022-07-28T09:47:24.670Z,29.99
2022-07-28T09:53:28.557Z,30.93
2022-07-28T09:59:44.798Z,31.94
2022-07-28T10:05:53.987Z,32.11
2022-07-28T10:12:18.518Z,32.48
2022-07-28T10:18:22.179Z,32.08
2022-07-28T10:24:28.155Z,32.15
2022-07-28T10:30:35.202Z,32.44
2022-07-28T10:36:38.196Z,32.13
2022-07-28T10:42:46.905Z,32.57
2022-07-28T10:48:49.901Z,32.89
2022-07-28T10:54:59.685Z,32.71
2022-07-28T11:01:06.199Z,32.93
2022-07-28T11:07:13.549Z,33.13
2022-07-28T11:13:29.057Z,33.71
2022-07-28T11:20:07.262Z,33.95
2022-07-28T11:26:23.699Z,33.75
2022-07-28T11:32:59.136Z,33.60
2022-07-28T11:39:27.228Z,33.10
2022-07-28T11:45:38.468Z,32.78
2022-07-28T11:52:03.170Z,33.01
2022-07-28T11:58:07.331Z,33.69
